Time;durP1;ratioP1;P1;durP2;ratioP2;P2;SDS_P1;SDS_P2;PMS_P1;PMS_P2;Temp;Humidity;BMP_temperature;BMP_pressure;BME280_temperature;BME280_humidity;BME280_pressure;Samples;Min_cycle;Max_cycle;Signal;HPM_P1;HPM_P2
2022/01/20 00:00:16;;;;;;;172.37;56.20;;;6.30;91.50;;;;;;4996744;28;20050;-75
2022/01/20 00:02:42;;;;;;;139.67;57.00;;;6.30;91.80;;;;;;4996457;28;20033;-75
2022/01/20 00:08:28;;;;;;;154.07;60.17;;;6.30;91.40;;;;;;4996822;28;20116;-76
2022/01/20 00:27:20;;;;;;;161.17;62.83;;;6.20;91.30;;;;;;4996230;28;20089;-77
2022/01/20 00:32:20;;;;;;;243.17;66.27;;;6.30;91.40;;;;;;4996114;28;20041;-76
2022/01/20 00:37:23;;;;;;;176.40;67.73;;;6.20;91.50;;;;;;4994813;28;20045;-75
2022/01/20 00:39:48;;;;;;;255.70;65.53;;;6.20;91.50;;;;;;4995708;28;20030;-76
2022/01/20 00:42:15;;;;;;;179.00;62.80;;;6.20;91.70;;;;;;4995849;28;20022;-78
2022/01/20 00:44:42;;;;;;;198.47;66.37;;;6.20;91.80;;;;;;4995556;28;20076;-76
2022/01/20 00:47:08;;;;;;;229.07;65.27;;;6.20;91.90;;;;;;4995979;28;20026;-77
2022/01/20 00:49:34;;;;;;;187.30;62.73;;;6.20;91.90;;;;;;4995550;28;20037;-76
2022/01/20 00:52:00;;;;;;;169.57;58.60;;;6.20;91.80;;;;;;4995419;28;20029;-76
2022/01/20 00:54:26;;;;;;;203.97;59.73;;;6.30;91.70;;;;;;4995547;28;20035;-75
2022/01/20 00:56:52;;;;;;;256.77;60.07;;;6.20;91.60;;;;;;4995272;28;20109;-75
2022/01/20 00:59:18;;;;;;;156.33;60.17;;;6.20;91.70;;;;;;4995287;28;20117;-76
2022/01/20 01:01:44;;;;;;;229.10;58.83;;;6.20;91.70;;;;;;4995446;28;20068;-75
2022/01/20 01:04:10;;;;;;;166.10;57.37;;;6.20;91.70;;;;;;4995303;28;20053;-77
2022/01/20 01:09:02;;;;;;;172.77;57.37;;;6.20;91.60;;;;;;4995406;28;20129;-77
2022/01/20 01:11:28;;;;;;;162.27;58.47;;;6.20;91.70;;;;;;4995600;28;20510;-75
2022/01/20 01:13:55;;;;;;;142.77;57.70;;;6.20;91.80;;;;;;4995311;28;20113;-75
2022/01/20 01:16:25;;;;;;;127.77;53.37;;;6.20;91.80;;;;;;4993788;28;20038;-77
2022/01/20 01:21:45;;;;;;;124.43;54.70;;;6.20;91.60;;;;;;4995473;28;20081;-76
2022/01/20 01:24:11;;;;;;;118.43;52.80;;;6.20;91.60;;;;;;4995144;28;20540;-76
2022/01/20 01:26:37;;;;;;;135.43;57.20;;;6.20;91.60;;;;;;4995046;28;20116;-78
2022/01/20 01:29:16;;;;;;;134.27;56.20;;;6.20;91.60;;;;;;4994849;28;20030;-77
2022/01/20 01:31:42;;;;;;;134.90;56.93;;;6.20;91.50;;;;;;4994862;28;20030;-76
2022/01/20 01:34:11;;;;;;;134.67;55.30;;;6.20;91.50;;;;;;4994832;28;20034;-77
2022/01/20 01:39:12;;;;;;;129.67;55.00;;;6.20;91.50;;;;;;4994722;28;20077;-78
2022/01/20 01:41:39;;;;;;;120.00;52.93;;;6.20;91.40;;;;;;4994639;28;20023;-78
2022/01/20 01:44:06;;;;;;;130.27;55.77;;;6.20;91.40;;;;;;4994711;28;20030;-76
2022/01/20 01:46:32;;;;;;;119.57;53.20;;;6.20;91.40;;;;;;4994547;28;20030;-76
2022/01/20 01:48:58;;;;;;;121.23;49.47;;;6.20;91.20;;;;;;4994329;28;20022;-75
2022/01/20 01:51:25;;;;;;;109.40;49.07;;;6.20;91.20;;;;;;4994576;28;20022;-75
2022/01/20 01:53:50;;;;;;;134.57;53.43;;;6.20;91.10;;;;;;4994396;28;20041;-76
2022/01/20 01:56:17;;;;;;;136.27;53.50;;;6.20;91.20;;;;;;4994550;28;20031;-75
2022/01/20 01:58:42;;;;;;;124.83;52.40;;;6.20;91.30;;;;;;4992469;28;20049;-76
2022/01/20 02:01:08;;;;;;;137.13;52.23;;;6.20;91.30;;;;;;4990194;28;20022;-76
2022/01/20 02:03:43;;;;;;;126.33;53.20;;;6.10;91.30;;;;;;4991748;28;20022;-75
2022/01/20 02:19:14;;;;;;;113.73;51.73;;;6.10;91.30;;;;;;4993888;28;20049;-76
2022/01/20 02:21:48;;;;;;;189.77;51.17;;;6.10;91.40;;;;;;4993556;28;20456;-75
2022/01/20 02:24:15;;;;;;;181.67;51.00;;;6.10;91.40;;;;;;4993970;28;20049;-76
2022/01/20 02:26:40;;;;;;;202.27;50.13;;;6.10;91.50;;;;;;4993894;28;20029;-75
2022/01/20 02:29:06;;;;;;;192.07;51.60;;;6.00;91.50;;;;;;4993582;28;20030;-74
2022/01/20 02:31:33;;;;;;;310.60;54.37;;;6.10;91.60;;;;;;4993935;28;20034;-75
2022/01/20 02:33:59;;;;;;;185.63;48.43;;;6.00;91.70;;;;;;4993689;28;20464;-77
2022/01/20 02:36:25;;;;;;;307.63;49.27;;;6.00;91.80;;;;;;4993446;28;20061;-76
2022/01/20 02:38:59;;;;;;;271.27;48.57;;;5.90;91.80;;;;;;4993495;28;20044;-76
2022/01/20 02:46:53;;;;;;;237.23;44.37;;;5.90;92.00;;;;;;4993893;28;20026;-75
2022/01/20 02:49:19;;;;;;;342.83;45.43;;;5.90;92.00;;;;;;4993602;28;20101;-77
2022/01/20 02:51:48;;;;;;;170.67;45.17;;;5.90;92.00;;;;;;4993323;28;20468;-75
2022/01/20 02:54:14;;;;;;;282.77;46.57;;;5.80;92.10;;;;;;4993628;28;20153;-75
2022/01/20 02:56:39;;;;;;;161.83;44.57;;;5.80;92.10;;;;;;4993755;28;20102;-75
2022/01/20 02:59:05;;;;;;;304.53;49.03;;;5.80;92.30;;;;;;4993254;28;20041;-76
2022/01/20 03:01:32;;;;;;;135.60;46.70;;;5.80;92.00;;;;;;4997499;28;20030;-74
2022/01/20 03:04:00;;;;;;;197.03;46.63;;;5.80;92.00;;;;;;4996155;28;20034;-75
2022/01/20 03:06:25;;;;;;;152.30;46.23;;;5.80;91.90;;;;;;4997732;28;20057;-75
2022/01/20 03:08:51;;;;;;;157.87;45.20;;;5.80;91.90;;;;;;4997463;28;20065;-75
2022/01/20 03:11:17;;;;;;;175.83;45.87;;;5.80;91.90;;;;;;4997714;28;20081;-76
2022/01/20 03:13:42;;;;;;;135.33;47.27;;;5.80;91.90;;;;;;4997496;28;20509;-77
2022/01/20 03:16:08;;;;;;;114.10;47.37;;;5.80;91.90;;;;;;4997410;28;20027;-75
2022/01/20 03:18:34;;;;;;;116.07;50.03;;;5.80;92.00;;;;;;4997357;28;20046;-75
2022/01/20 03:21:00;;;;;;;104.87;53.23;;;5.80;91.90;;;;;;4997204;28;20023;-77
2022/01/20 03:23:25;;;;;;;105.87;53.77;;;5.80;91.90;;;;;;4997291;28;20454;-76
2022/01/20 03:25:51;;;;;;;109.47;53.27;;;5.80;91.90;;;;;;4997173;28;20033;-76
2022/01/20 03:28:17;;;;;;;105.13;54.67;;;5.80;91.80;;;;;;4997183;28;20064;-75
2022/01/20 03:30:42;;;;;;;97.60;52.67;;;5.80;91.80;;;;;;4997037;28;20113;-75
2022/01/20 03:33:08;;;;;;;99.60;52.77;;;5.80;91.90;;;;;;4997148;28;20030;-74
2022/01/20 03:35:35;;;;;;;103.93;55.60;;;5.80;91.80;;;;;;4997050;28;20542;-76
2022/01/20 03:38:01;;;;;;;107.50;56.97;;;5.90;91.80;;;;;;4996814;28;20042;-76
2022/01/20 03:40:27;;;;;;;97.10;51.80;;;5.90;91.80;;;;;;4996909;28;20356;-75
2022/01/20 03:42:52;;;;;;;98.70;53.57;;;5.90;91.90;;;;;;4996961;28;20510;-76
2022/01/20 03:45:18;;;;;;;106.90;56.10;;;5.90;91.80;;;;;;4996751;28;20061;-75
2022/01/20 03:47:44;;;;;;;103.80;54.53;;;5.90;91.80;;;;;;4997239;28;20034;-75
2022/01/20 03:50:59;;;;;;;107.43;54.97;;;5.90;91.70;;;;;;4996874;28;20080;-76
2022/01/20 03:52:56;;;;;;;100.33;53.73;;;5.90;91.70;;;;;;4996517;28;20034;-75
2022/01/20 03:55:22;;;;;;;97.73;52.57;;;6.00;91.60;;;;;;4996653;28;20026;-76
2022/01/20 03:57:48;;;;;;;97.43;52.43;;;6.00;91.50;;;;;;4996432;28;20030;-75
2022/01/20 04:00:14;;;;;;;97.60;49.93;;;6.00;91.40;;;;;;4996482;28;20393;-75
2022/01/20 04:02:40;;;;;;;96.00;49.97;;;6.00;91.30;;;;;;4996391;28;20026;-75
2022/01/20 04:05:06;;;;;;;93.77;50.30;;;6.00;91.40;;;;;;4996546;28;20026;-75
2022/01/20 04:07:32;;;;;;;93.53;49.73;;;6.00;91.40;;;;;;4996286;28;20097;-76
2022/01/20 04:09:57;;;;;;;99.77;52.30;;;6.00;91.40;;;;;;4996203;28;20041;-76
2022/01/20 04:12:23;;;;;;;93.80;49.73;;;6.00;91.50;;;;;;4995002;28;20037;-78
2022/01/20 04:14:49;;;;;;;96.30;50.83;;;5.90;91.50;;;;;;4996305;28;20030;-75
2022/01/20 04:17:19;;;;;;;89.30;50.33;;;5.90;91.50;;;;;;4996284;28;20053;-76
2022/01/20 04:19:45;;;;;;;85.03;50.17;;;5.90;91.50;;;;;;4996231;28;20096;-77
2022/01/20 04:22:11;;;;;;;87.03;49.33;;;5.90;91.50;;;;;;4996200;28;20037;-76
2022/01/20 04:24:37;;;;;;;89.50;49.57;;;5.90;91.50;;;;;;4996324;28;20463;-76
2022/01/20 04:27:04;;;;;;;82.13;45.50;;;6.00;91.40;;;;;;4995043;28;20034;-75
2022/01/20 04:29:29;;;;;;;83.77;46.27;;;6.00;91.10;;;;;;4996110;28;20034;-75
2022/01/20 04:31:55;;;;;;;86.07;46.13;;;6.00;90.90;;;;;;4996080;28;20034;-75
2022/01/20 04:34:21;;;;;;;86.00;46.13;;;6.00;90.90;;;;;;4995826;28;20102;-75
2022/01/20 04:36:50;;;;;;;85.30;46.27;;;5.90;90.90;;;;;;4994449;28;20060;-75
2022/01/20 04:39:20;;;;;;;87.43;46.10;;;5.90;90.80;;;;;;4994788;28;20118;-76
2022/01/20 04:41:47;;;;;;;89.70;47.20;;;5.80;90.80;;;;;;4995885;28;20101;-75
2022/01/20 04:44:19;;;;;;;86.60;46.53;;;5.80;90.90;;;;;;4995923;28;20475;-75
2022/01/20 04:46:54;;;;;;;85.13;45.47;;;5.80;91.00;;;;;;4995623;28;20023;-77
2022/01/20 04:57:32;;;;;;;81.40;44.03;;;5.70;91.20;;;;;;4995457;28;20430;-75
2022/01/20 04:59:58;;;;;;;81.17;44.73;;;5.70;91.30;;;;;;4995612;28;20031;-75
2022/01/20 05:02:26;;;;;;;82.60;45.33;;;5.70;91.40;;;;;;4995741;28;20510;-75
2022/01/20 05:04:52;;;;;;;83.90;44.10;;;5.70;91.40;;;;;;4995434;28;20022;-75
2022/01/20 05:07:22;;;;;;;83.07;45.73;;;5.70;91.40;;;;;;4995343;28;20154;-76
2022/01/20 05:09:48;;;;;;;82.80;44.33;;;5.70;91.40;;;;;;4995239;28;20022;-76
2022/01/20 05:12:19;;;;;;;84.13;44.53;;;5.70;91.40;;;;;;4995416;28;20025;-76
2022/01/20 05:14:44;;;;;;;86.47;44.87;;;5.70;91.40;;;;;;4994932;28;20533;-76
2022/01/20 05:17:10;;;;;;;82.70;45.00;;;5.70;91.40;;;;;;4995075;28;20065;-76
2022/01/20 05:19:36;;;;;;;84.17;44.70;;;5.70;91.40;;;;;;4993720;28;20030;-76
2022/01/20 05:22:02;;;;;;;80.77;44.47;;;5.70;91.40;;;;;;4994814;28;20110;-76
2022/01/20 05:24:27;;;;;;;79.07;44.70;;;5.70;91.40;;;;;;4994664;28;20086;-76
2022/01/20 05:26:55;;;;;;;81.53;44.57;;;5.70;91.40;;;;;;4995027;28;20073;-75
2022/01/20 05:29:22;;;;;;;84.83;45.50;;;5.70;91.40;;;;;;4995101;28;20364;-76
2022/01/20 05:31:49;;;;;;;80.20;43.73;;;5.70;91.30;;;;;;4994999;28;20471;-77
2022/01/20 05:34:15;;;;;;;80.70;43.37;;;5.70;91.40;;;;;;4994922;28;20076;-77
2022/01/20 05:36:42;;;;;;;78.77;44.70;;;5.70;91.40;;;;;;4994752;28;20458;-75
2022/01/20 05:39:09;;;;;;;77.20;42.53;;;5.70;91.40;;;;;;4994985;28;20376;-75
2022/01/20 05:41:34;;;;;;;74.83;43.63;;;5.70;91.50;;;;;;4994934;28;20471;-76
2022/01/20 05:44:01;;;;;;;74.57;43.37;;;5.70;91.50;;;;;;4994556;28;20057;-75
2022/01/20 05:46:34;;;;;;;72.53;42.37;;;5.70;91.60;;;;;;4994687;28;20050;-77
2022/01/20 05:49:08;;;;;;;79.57;44.70;;;5.70;91.60;;;;;;4994661;28;20420;-77
2022/01/20 05:51:38;;;;;;;77.70;43.27;;;5.70;91.60;;;;;;4994425;28;20441;-79
2022/01/20 05:54:04;;;;;;;75.17;43.07;;;5.80;91.50;;;;;;4994464;28;20530;-75
2022/01/20 05:56:30;;;;;;;80.23;44.90;;;5.80;91.40;;;;;;4994487;28;20089;-76
2022/01/20 05:58:56;;;;;;;77.13;42.80;;;5.80;91.40;;;;;;4994471;28;20031;-75
2022/01/20 06:01:21;;;;;;;74.37;41.80;;;5.70;91.50;;;;;;4994342;28;20025;-76
2022/01/20 06:03:47;;;;;;;73.60;42.67;;;5.70;91.50;;;;;;4994334;28;20399;-75
2022/01/20 06:06:13;;;;;;;74.23;43.87;;;5.80;91.50;;;;;;4994240;28;20050;-75
2022/01/20 06:08:44;;;;;;;72.00;42.23;;;5.80;91.50;;;;;;4994621;28;20375;-75
2022/01/20 06:11:10;;;;;;;71.93;42.03;;;5.80;91.70;;;;;;4994519;28;20038;-75
2022/01/20 06:13:36;;;;;;;76.40;44.07;;;5.80;91.70;;;;;;4994494;28;20066;-75
2022/01/20 06:16:03;;;;;;;78.83;46.13;;;5.80;91.70;;;;;;4994354;28;20041;-74
2022/01/20 06:18:29;;;;;;;81.73;46.47;;;5.80;91.70;;;;;;4994085;28;20037;-75
2022/01/20 06:20:55;;;;;;;79.60;45.43;;;5.80;91.60;;;;;;4994034;28;20054;-75
2022/01/20 06:23:22;;;;;;;76.57;45.13;;;5.80;91.60;;;;;;4994125;28;20058;-75
2022/01/20 06:25:48;;;;;;;83.10;45.70;;;5.80;91.60;;;;;;4993978;28;20029;-75
2022/01/20 06:28:15;;;;;;;82.30;45.73;;;5.80;91.60;;;;;;4994161;28;20101;-75
2022/01/20 06:30:40;;;;;;;83.17;47.13;;;5.80;91.60;;;;;;4993901;28;20042;-75
2022/01/20 06:33:07;;;;;;;82.23;45.17;;;5.80;91.60;;;;;;4993791;28;20491;-74
2022/01/20 06:35:33;;;;;;;79.20;45.03;;;5.80;91.50;;;;;;4991973;28;20042;-75
2022/01/20 06:37:59;;;;;;;82.23;47.03;;;5.80;91.50;;;;;;4993875;28;20034;-75
2022/01/20 06:40:25;;;;;;;81.87;45.87;;;5.80;91.60;;;;;;4993821;28;20029;-75
2022/01/20 06:42:50;;;;;;;79.47;45.17;;;5.80;91.60;;;;;;4993752;28;20364;-75
2022/01/20 06:45:19;;;;;;;80.40;45.60;;;5.80;91.50;;;;;;4993677;28;20022;-75
2022/01/20 06:47:44;;;;;;;86.50;46.10;;;5.80;91.40;;;;;;4993628;28;20057;-74
2022/01/20 06:50:12;;;;;;;85.37;46.43;;;5.90;91.30;;;;;;4993575;28;20052;-76
2022/01/20 06:52:39;;;;;;;81.13;44.03;;;5.90;91.10;;;;;;4993702;28;20030;-74
2022/01/20 06:55:07;;;;;;;88.50;45.93;;;5.90;91.00;;;;;;4993733;28;20018;-74
2022/01/20 06:57:34;;;;;;;88.47;46.80;;;5.90;90.90;;;;;;4993677;28;20426;-74
2022/01/20 07:00:00;;;;;;;83.30;44.93;;;5.90;90.90;;;;;;4993492;28;20050;-73
2022/01/20 07:02:26;;;;;;;83.60;48.30;;;5.90;90.90;;;;;;4993427;28;20387;-75
2022/01/20 07:04:52;;;;;;;82.43;47.63;;;5.90;90.90;;;;;;4993662;28;20027;-74
2022/01/20 07:07:18;;;;;;;81.23;47.20;;;5.90;91.10;;;;;;4993620;28;20088;-74
2022/01/20 07:09:44;;;;;;;80.37;47.27;;;5.80;91.10;;;;;;4993595;28;20402;-74
2022/01/20 07:12:11;;;;;;;82.70;47.60;;;5.80;91.20;;;;;;4993349;28;20026;-74
2022/01/20 07:14:37;;;;;;;75.33;43.97;;;5.80;91.10;;;;;;4993414;28;20446;-75
2022/01/20 07:17:04;;;;;;;85.97;48.83;;;5.80;91.20;;;;;;4993511;28;20030;-75
2022/01/20 07:19:30;;;;;;;78.07;45.93;;;5.80;91.20;;;;;;4993785;28;20045;-75
2022/01/20 07:21:58;;;;;;;78.30;45.30;;;5.80;91.30;;;;;;4993580;28;20027;-74
2022/01/20 07:24:24;;;;;;;88.60;47.87;;;5.80;91.40;;;;;;4993726;28;20481;-73
2022/01/20 07:26:50;;;;;;;76.23;45.50;;;5.80;91.40;;;;;;4992343;28;20113;-74
2022/01/20 07:29:16;;;;;;;85.10;46.67;;;5.80;91.50;;;;;;4993522;28;20112;-74
2022/01/20 07:31:42;;;;;;;82.47;46.87;;;5.80;91.60;;;;;;4993293;28;20030;-77
2022/01/20 07:34:07;;;;;;;79.83;47.57;;;5.70;91.60;;;;;;4993417;28;20451;-74
2022/01/20 07:36:34;;;;;;;82.50;47.73;;;5.70;91.70;;;;;;4993076;28;20057;-73
2022/01/20 07:39:00;;;;;;;76.93;45.07;;;5.70;91.70;;;;;;4992983;28;20042;-74
2022/01/20 07:41:26;;;;;;;76.10;45.77;;;5.80;91.70;;;;;;4993490;28;20027;-74
2022/01/20 07:43:51;;;;;;;74.70;44.93;;;5.90;91.50;;;;;;4993382;28;20030;-76
2022/01/20 07:46:17;;;;;;;79.43;46.00;;;5.80;91.40;;;;;;4994872;28;20379;-77
2022/01/20 07:48:43;;;;;;;81.10;46.70;;;5.90;91.40;;;;;;4997066;28;20582;-74
2022/01/20 07:51:08;;;;;;;78.03;44.33;;;5.80;91.60;;;;;;4997073;28;20034;-75
2022/01/20 07:53:35;;;;;;;77.07;43.53;;;5.80;91.60;;;;;;4996713;28;20022;-75
2022/01/20 07:56:01;;;;;;;80.43;45.60;;;5.80;91.70;;;;;;4996774;28;20477;-75
2022/01/20 07:58:27;;;;;;;78.23;46.00;;;5.80;91.70;;;;;;4996414;28;20500;-74
2022/01/20 08:00:53;;;;;;;76.50;45.63;;;5.80;91.80;;;;;;4996838;28;20041;-76
2022/01/20 08:03:18;;;;;;;82.43;46.63;;;5.90;91.90;;;;;;4996601;28;20015;-75
2022/01/20 08:05:44;;;;;;;77.90;45.53;;;5.90;91.80;;;;;;4996784;28;20026;-73
2022/01/20 08:08:10;;;;;;;80.03;46.13;;;5.90;92.00;;;;;;4996564;28;20045;-73
2022/01/20 08:10:36;;;;;;;76.10;46.37;;;5.90;91.90;;;;;;4996570;28;20031;-74
2022/01/20 08:13:03;;;;;;;75.70;44.50;;;5.90;92.00;;;;;;4996354;28;20034;-74
2022/01/20 08:15:29;;;;;;;74.73;42.70;;;5.90;92.10;;;;;;4996569;28;20058;-76
2022/01/20 08:17:55;;;;;;;74.10;44.47;;;5.90;92.10;;;;;;4996262;28;20081;-78
2022/01/20 08:20:20;;;;;;;67.33;41.17;;;5.90;92.00;;;;;;4996161;28;20030;-74
2022/01/20 08:22:46;;;;;;;59.83;37.93;;;5.90;92.00;;;;;;4996463;28;20038;-73
2022/01/20 08:25:15;;;;;;;65.73;40.33;;;6.00;91.90;;;;;;4996286;28;20026;-74
2022/01/20 08:27:42;;;;;;;74.63;43.23;;;6.00;91.80;;;;;;4996278;28;20026;-74
2022/01/20 08:30:11;;;;;;;75.37;43.30;;;6.00;91.90;;;;;;4995988;28;20029;-76
2022/01/20 08:32:37;;;;;;;74.50;44.77;;;5.90;92.00;;;;;;4996275;28;20066;-78
2022/01/20 08:35:06;;;;;;;72.90;42.23;;;5.90;92.00;;;;;;4995957;28;20039;-74
2022/01/20 08:37:37;;;;;;;69.30;41.47;;;6.00;92.00;;;;;;4996170;28;20043;-73
2022/01/20 08:40:05;;;;;;;68.77;41.17;;;6.00;92.10;;;;;;4995366;28;20039;-73
2022/01/20 08:42:31;;;;;;;71.40;41.60;;;6.00;92.10;;;;;;4992997;28;20038;-74
2022/01/20 08:44:57;;;;;;;64.13;40.80;;;6.00;92.10;;;;;;4995581;28;20030;-78
2022/01/20 08:47:23;;;;;;;64.07;40.97;;;6.10;92.10;;;;;;4995699;28;20550;-73
2022/01/20 08:49:50;;;;;;;66.50;41.43;;;6.00;92.10;;;;;;4995445;28;20030;-76
2022/01/20 08:52:17;;;;;;;53.63;35.53;;;6.00;92.40;;;;;;5006637;28;20041;-78
2022/01/20 08:54:47;;;;;;;48.63;32.33;;;6.00;92.50;;;;;;5013735;28;20075;-72
2022/01/20 08:57:14;;;;;;;50.63;34.83;;;6.00;92.40;;;;;;5012492;28;20037;-73
2022/01/20 08:59:41;;;;;;;47.40;33.27;;;6.10;92.40;;;;;;5008948;28;20034;-70
2022/01/20 09:02:11;;;;;;;50.57;34.30;;;6.10;92.20;;;;;;4995332;28;20395;-74
2022/01/20 09:04:37;;;;;;;58.17;37.20;;;6.10;92.10;;;;;;4994988;28;20483;-73
2022/01/20 09:07:03;;;;;;;61.80;40.03;;;6.10;92.00;;;;;;4995138;28;20077;-74
2022/01/20 09:09:29;;;;;;;60.03;37.53;;;6.10;92.10;;;;;;4994878;28;20422;-74
2022/01/20 09:17:34;;;;;;;60.73;39.57;;;6.10;92.30;;;;;;4994404;28;20057;-74
2022/01/20 09:20:00;;;;;;;65.53;42.40;;;6.10;92.30;;;;;;4994620;28;20433;-73
2022/01/20 09:22:28;;;;;;;58.20;38.30;;;6.10;92.30;;;;;;4994670;28;20026;-73
2022/01/20 09:24:54;;;;;;;44.43;31.30;;;6.20;92.40;;;;;;4994786;28;20026;-73
2022/01/20 09:27:20;;;;;;;42.03;28.73;;;6.20;92.50;;;;;;4994459;28;20384;-73
2022/01/20 09:29:46;;;;;;;51.20;32.90;;;6.30;92.50;;;;;;4994661;28;20050;-74
2022/01/20 09:32:13;;;;;;;48.80;32.47;;;6.30;92.40;;;;;;4994352;28;20019;-72
2022/01/20 09:34:39;;;;;;;57.83;35.00;;;6.30;92.40;;;;;;4994569;28;20049;-72
2022/01/20 09:37:05;;;;;;;49.13;34.63;;;6.30;92.30;;;;;;4994942;28;20022;-68
2022/01/20 09:39:31;;;;;;;47.40;32.83;;;6.30;92.20;;;;;;4994536;28;20080;-67
2022/01/20 09:41:58;;;;;;;49.37;36.77;;;6.40;92.20;;;;;;4994740;28;20018;-68
2022/01/20 09:44:24;;;;;;;48.10;33.70;;;6.40;92.00;;;;;;4994410;28;20109;-68
2022/01/20 09:46:50;;;;;;;43.40;32.70;;;6.40;92.20;;;;;;4994168;28;20478;-68
2022/01/20 09:49:16;;;;;;;50.10;31.47;;;6.40;92.30;;;;;;4994526;28;20034;-68
2022/01/20 09:51:42;;;;;;;41.27;29.60;;;6.30;92.40;;;;;;4994137;28;20376;-68
2022/01/20 09:54:09;;;;;;;41.73;31.00;;;6.30;92.30;;;;;;4994399;28;20041;-69
2022/01/20 09:56:35;;;;;;;36.60;27.33;;;6.30;92.40;;;;;;4994192;28;20026;-70
2022/01/20 09:59:02;;;;;;;42.83;34.43;;;6.40;92.40;;;;;;4993952;28;20084;-70
2022/01/20 10:01:45;;;;;;;42.43;32.37;;;6.30;92.20;;;;;;4993608;28;20033;-71
2022/01/20 10:04:22;;;;;;;40.47;28.13;;;6.40;92.20;;;;;;4994188;28;20029;-74
2022/01/20 10:06:59;;;;;;;39.80;26.60;;;6.40;92.30;;;;;;4988453;28;20049;-75
2022/01/20 10:09:30;;;;;;;37.63;25.77;;;6.50;92.20;;;;;;4990884;28;20026;-75
2022/01/20 10:11:56;;;;;;;35.43;25.43;;;6.60;91.90;;;;;;4993764;28;20097;-74
2022/01/20 10:14:22;;;;;;;40.37;26.13;;;6.70;91.60;;;;;;4994013;28;20161;-75
2022/01/20 10:16:48;;;;;;;37.70;25.73;;;6.70;91.30;;;;;;4994168;28;20053;-75
2022/01/20 10:19:24;;;;;;;34.00;24.90;;;6.80;91.10;;;;;;4993714;28;20042;-75
2022/01/20 10:21:50;;;;;;;40.53;25.27;;;6.80;91.00;;;;;;4993723;28;20026;-75
2022/01/20 10:24:16;;;;;;;35.53;24.07;;;6.90;90.90;;;;;;5005598;28;20503;-75
2022/01/20 10:26:42;;;;;;;35.27;23.60;;;6.90;90.90;;;;;;4982951;28;20030;-74
2022/01/20 10:29:15;;;;;;;34.87;22.67;;;6.90;90.80;;;;;;4978787;28;20061;-74
2022/01/20 10:31:45;;;;;;;33.97;24.63;;;6.90;90.60;;;;;;4973922;28;20022;-75
2022/01/20 10:34:30;;;;;;;57.43;36.40;;;6.90;90.40;;;;;;4974209;28;20537;-74
2022/01/20 10:36:59;;;;;;;56.20;37.30;;;6.90;90.00;;;;;;4973709;28;20499;-75
2022/01/20 10:39:32;;;;;;;59.97;39.57;;;6.90;90.10;;;;;;4973785;28;20038;-74
2022/01/20 10:41:59;;;;;;;;;;;6.90;90.20;;;;;;4974296;28;20026;-74
2022/01/20 10:44:25;;;;;;;54.83;37.43;;;6.90;90.30;;;;;;4974159;28;19910;-74
2022/01/20 10:46:54;;;;;;;47.70;33.70;;;6.90;90.10;;;;;;4974420;28;20498;-75
2022/01/20 10:49:21;;;;;;;46.80;33.00;;;6.90;90.10;;;;;;4973773;28;20114;-74
2022/01/20 10:51:59;;;;;;;50.50;33.20;;;6.90;90.10;;;;;;4973551;28;20031;-74
2022/01/20 10:54:25;;;;;;;41.73;28.70;;;6.90;90.10;;;;;;4973449;28;20030;-74
2022/01/20 10:56:54;;;;;;;39.00;28.00;;;6.90;90.20;;;;;;4973926;28;20479;-74
2022/01/20 10:59:22;;;;;;;42.03;29.60;;;7.00;90.20;;;;;;4973022;28;20042;-74
2022/01/20 11:01:58;;;;;;;43.87;29.70;;;7.00;90.10;;;;;;4972364;28;20031;-74
2022/01/20 11:04:24;;;;;;;42.77;29.07;;;6.90;90.10;;;;;;4972087;28;20393;-74
2022/01/20 11:06:55;;;;;;;40.67;28.47;;;7.00;90.10;;;;;;4973198;28;20081;-75
2022/01/20 11:09:22;;;;;;;38.07;26.70;;;7.00;90.10;;;;;;4973907;28;20435;-74
2022/01/20 11:11:48;;;;;;;37.20;26.07;;;7.00;90.20;;;;;;4971974;28;20049;-74
2022/01/20 11:14:15;;;;;;;41.17;26.57;;;7.00;90.20;;;;;;4972091;28;20113;-75
2022/01/20 11:16:41;;;;;;;39.63;27.30;;;7.00;90.20;;;;;;4973352;28;20027;-74
2022/01/20 11:19:18;;;;;;;39.77;27.33;;;7.00;90.20;;;;;;4973417;28;20039;-74
2022/01/20 11:21:45;;;;;;;36.17;26.43;;;7.00;90.20;;;;;;4976209;28;20030;-74
2022/01/20 11:24:22;;;;;;;39.83;28.47;;;7.00;90.10;;;;;;4976140;28;20033;-74
2022/01/20 11:27:00;;;;;;;40.73;30.07;;;7.10;90.10;;;;;;4977363;28;20058;-74
2022/01/20 11:29:41;;;;;;;38.80;27.07;;;7.10;90.10;;;;;;4978184;28;20423;-74
2022/01/20 11:32:26;;;;;;;40.87;29.20;;;7.10;90.00;;;;;;4977661;28;20035;-74
2022/01/20 11:35:05;;;;;;;40.23;29.67;;;7.10;90.00;;;;;;4992244;28;20384;-75
2022/01/20 11:37:34;;;;;;;41.63;29.37;;;7.10;90.00;;;;;;4977255;28;20038;-75
2022/01/20 11:40:19;;;;;;;39.90;29.80;;;7.10;90.00;;;;;;4977595;28;20032;-74
2022/01/20 11:42:59;;;;;;;42.17;30.17;;;7.10;90.00;;;;;;4977319;28;20019;-74
2022/01/20 11:45:28;;;;;;;38.87;28.23;;;7.10;90.00;;;;;;4977326;28;20037;-74
2022/01/20 11:47:55;;;;;;;41.53;28.77;;;7.20;90.10;;;;;;4977271;28;20165;-74
2022/01/20 11:50:21;;;;;;;40.77;29.60;;;7.20;90.10;;;;;;4977258;28;20022;-74
2022/01/20 11:52:47;;;;;;;42.40;29.97;;;7.20;90.10;;;;;;4977335;28;20097;-74
2022/01/20 11:55:15;;;;;;;42.73;30.80;;;7.20;90.30;;;;;;4976785;28;20047;-75
2022/01/20 11:57:41;;;;;;;45.17;29.83;;;7.20;90.20;;;;;;4976833;28;20094;-73
2022/01/20 12:00:24;;;;;;;39.47;29.20;;;7.30;90.30;;;;;;4976955;28;20031;-74
2022/01/20 12:02:51;;;;;;;40.53;28.40;;;7.30;90.30;;;;;;4976930;28;20026;-74
2022/01/20 12:05:28;;;;;;;45.43;30.20;;;7.30;90.30;;;;;;4976898;28;20113;-75
2022/01/20 12:08:12;;;;;;;43.60;30.83;;;7.30;90.40;;;;;;4976981;28;20113;-74
2022/01/20 12:10:43;;;;;;;45.97;31.77;;;7.30;90.40;;;;;;4976823;28;20423;-74
2022/01/20 12:13:16;;;;;;;39.50;28.53;;;7.30;90.30;;;;;;4977013;28;20039;-74
2022/01/20 12:15:55;;;;;;;42.35;29.73;;;7.30;90.20;;;;;;4976158;28;20432;-73
2022/01/20 12:18:21;;;;;;;42.77;29.40;;;7.30;90.00;;;;;;4975348;28;20043;-73
2022/01/20 12:20:47;;;;;;;41.20;27.97;;;7.30;90.10;;;;;;4976263;28;20049;-74
2022/01/20 12:23:13;;;;;;;44.23;32.17;;;7.30;90.10;;;;;;4975960;28;20046;-75
2022/01/20 12:25:39;;;;;;;43.93;31.20;;;7.30;90.10;;;;;;4976410;28;20018;-74
2022/01/20 12:28:05;;;;;;;45.33;30.23;;;7.30;90.20;;;;;;4976280;28;20082;-74
2022/01/20 12:30:32;;;;;;;42.10;29.80;;;7.30;90.10;;;;;;4976156;28;20031;-72
2022/01/20 12:33:13;;;;;;;43.13;29.40;;;7.30;90.00;;;;;;4995380;28;20029;-74
2022/01/20 12:35:43;;;;;;;41.53;30.40;;;7.30;90.00;;;;;;5014960;28;20053;-72
2022/01/20 12:38:27;;;;;;;43.97;30.30;;;7.30;90.00;;;;;;5014539;28;20042;-74
2022/01/20 12:41:18;;;;;;;41.20;31.13;;;7.30;90.10;;;;;;5014293;28;20048;-74
2022/01/20 12:44:12;;;;;;;42.50;31.00;;;7.30;90.10;;;;;;5014912;28;20033;-74
2022/01/20 12:46:41;;;;;;;48.07;32.30;;;7.30;90.10;;;;;;5012799;28;20040;-73
2022/01/20 12:49:12;;;;;;;50.67;33.50;;;7.20;90.20;;;;;;5014837;28;20384;-73
2022/01/20 12:51:45;;;;;;;49.23;30.87;;;7.20;90.30;;;;;;5014782;28;20037;-74
2022/01/20 12:54:17;;;;;;;53.67;33.00;;;7.20;90.40;;;;;;5014681;28;20424;-74
2022/01/20 12:56:46;;;;;;;45.50;31.57;;;7.20;90.50;;;;;;5014563;28;20056;-73
2022/01/20 12:59:21;;;;;;;45.77;31.53;;;7.20;90.50;;;;;;5014243;28;20292;-73
2022/01/20 13:01:48;;;;;;;48.50;33.37;;;7.20;90.40;;;;;;5014625;28;20479;-74
2022/01/20 13:04:16;;;;;;;47.87;33.43;;;7.20;90.40;;;;;;5014043;28;20040;-73
2022/01/20 13:06:57;;;;;;;45.00;32.87;;;7.30;90.50;;;;;;5014002;28;20037;-72
2022/01/20 13:09:35;;;;;;;49.07;32.07;;;7.30;90.50;;;;;;5014365;28;20037;-73
2022/01/20 13:12:02;;;;;;;48.03;32.80;;;7.30;90.50;;;;;;5014455;28;20037;-73
2022/01/20 13:14:49;;;;;;;53.20;32.07;;;7.20;90.50;;;;;;5013562;28;20117;-73
2022/01/20 13:17:28;;;;;;;45.43;31.87;;;7.30;90.50;;;;;;5013810;28;20022;-73
2022/01/20 13:19:58;;;;;;;42.40;30.93;;;7.30;90.50;;;;;;5014183;28;20120;-73
2022/01/20 13:22:28;;;;;;;49.63;34.07;;;7.30;90.40;;;;;;5014416;28;20021;-72
2022/01/20 13:25:07;;;;;;;49.43;32.93;;;7.30;90.40;;;;;;5014806;28;20109;-73
2022/01/20 13:27:33;;;;;;;44.40;32.17;;;7.30;90.40;;;;;;5014405;28;20033;-72
2022/01/20 13:29:59;;;;;;;42.50;31.50;;;7.30;90.40;;;;;;5013689;28;20386;-74
2022/01/20 13:32:24;;;;;;;49.63;32.43;;;7.30;90.40;;;;;;5012519;28;20025;-73
2022/01/20 13:34:58;;;;;;;43.70;31.70;;;7.30;90.40;;;;;;5013497;28;20037;-72
2022/01/20 13:37:25;;;;;;;45.27;33.53;;;7.40;90.30;;;;;;5013912;28;20038;-71
2022/01/20 13:40:02;;;;;;;45.03;32.97;;;7.30;90.30;;;;;;5013552;28;20109;-74
2022/01/20 13:45:12;;;;;;;52.40;36.23;;;7.30;90.40;;;;;;5013037;28;20509;-73
2022/01/20 13:47:54;;;;;;;48.50;34.73;;;7.40;90.50;;;;;;5013839;28;20061;-72